| time (UTC) | temp F | wind direction | speed MPH | gust MPH | rain 1hr in | rain 24hr in | rain mn in | humidity % | barometer mb |
| 20260507233008 | 64 | 261 | 2.0 | 9.0 | 0.00 | 0.00 | 0.00 | 20 | 1020.9 |
| 20260507231507 | 64 | 231 | 6.0 | 13.0 | 0.00 | 0.00 | 0.00 | 21 | 1021.0 |
| 20260507230014 | 64 | 244 | 2.0 | 14.0 | 0.00 | 0.00 | 0.00 | 22 | 1021.1 |
| 20260507224508 | 64 | 259 | 6.0 | 12.0 | 0.00 | 0.00 | 0.00 | 22 | 1021.2 |
| 20260507223002 | 64 | 244 | 3.0 | 11.0 | 0.00 | 0.00 | 0.00 | 18 | 1021.6 |
| 20260507221602 | 64 | 258 | 3.0 | 9.0 | 0.00 | 0.00 | 0.00 | 18 | 1021.8 |
| 20260507220058 | 64 | 310 | 3.0 | 9.0 | 0.00 | 0.00 | 0.00 | 18 | 1022.3 |
| 20260507214559 | 64 | 10 | 1.0 | 6.0 | 0.00 | 0.00 | 0.00 | 16 | 1022.6 |
| 20260507213124 | 63 | 240 | 4.0 | 13.0 | 0.00 | 0.00 | 0.00 | 15 | 1022.9 |
| 20260507211552 | 63 | 261 | 2.0 | 15.0 | 0.00 | 0.00 | 0.00 | 14 | 1023.1 |
| 20260507210150 | 63 | 340 | 3.0 | 12.0 | 0.00 | 0.00 | 0.00 | 13 | 1023.4 |
| 20260507204549 | 63 | 278 | 3.0 | 11.0 | 0.00 | 0.00 | 0.00 | 12 | 1023.5 |
| 20260507203045 | 62 | 246 | 3.0 | 10.0 | 0.00 | 0.00 | 0.00 | 12 | 1023.8 |
| 20260507201547 | 62 | 246 | 2.0 | 10.0 | 0.00 | 0.00 | 0.00 | 11 | 1024.1 |
| 20260507200053 | 61 | 298 | 4.0 | 11.0 | 0.00 | 0.00 | 0.00 | 11 | 1024.4 |
| 20260507194538 | 61 | 251 | 4.0 | 11.0 | 0.00 | 0.00 | 0.00 | 11 | 1024.3 |
| 20260507193045 | 60 | 216 | 2.0 | 11.0 | 0.00 | 0.00 | 0.00 | 13 | 1024.6 |
| 20260507191532 | 60 | 266 | 6.0 | 14.0 | 0.00 | 0.00 | 0.00 | 18 | 1024.6 |
| 20260507190035 | 59 | 343 | 4.0 | 16.0 | 0.00 | 0.00 | 0.00 | 21 | 1024.9 |
| 20260507184528 | 58 | 271 | 4.0 | 12.0 | 0.00 | 0.00 | 0.00 | 22 | 1024.9 |
| 20260507183033 | 57 | 269 | 3.0 | 11.0 | 0.00 | 0.00 | 0.00 | 25 | 1025.1 |
| 20260507181519 | 56 | 265 | 5.0 | 12.0 | 0.00 | 0.00 | 0.00 | 26 | 1025.4 |
| 20260507180017 | 56 | 310 | 5.0 | 14.0 | 0.00 | 0.00 | 0.00 | 29 | 1025.8 |
| 20260507174519 | 54 | 325 | 5.0 | 16.0 | 0.00 | 0.00 | 0.00 | 33 | 1026.1 |
| 20260507173015 | 54 | 314 | 3.0 | 12.0 | 0.00 | 0.00 | 0.00 | 38 | 1026.2 |
| 20260507171506 | 52 | 236 | 4.0 | 13.0 | 0.00 | 0.00 | 0.00 | 43 | 1026.5 |
| 20260507170002 | 50 | 293 | 5.0 | 11.0 | 0.00 | 0.00 | 0.00 | 46 | 1026.9 |
| 20260507164603 | 49 | 291 | 1.0 | 10.0 | 0.00 | 0.00 | 0.00 | 49 | 1026.9 |
| 20260507163056 | 48 | 49 | 1.0 | 12.0 | 0.00 | 0.00 | 0.00 | 52 | 1026.9 |
| 20260507161606 | 46 | 324 | 3.0 | 10.0 | 0.00 | 0.00 | 0.00 | 57 | 1027.0 |
| 20260507160054 | 45 | 343 | 6.0 | 14.0 | 0.00 | 0.00 | 0.00 | 57 | 1027.3 |
| 20260507154553 | 46 | 337 | 1.0 | 9.0 | 0.00 | 0.00 | 0.00 | 55 | 1027.4 |
| 20260507153109 | 45 | 292 | 3.0 | 11.0 | 0.00 | 0.00 | 0.00 | 56 | 1027.6 |
| 20260507151556 | 47 | 321 | 1.0 | 7.0 | 0.00 | 0.00 | 0.00 | 48 | 1027.6 |
| 20260507150051 | 44 | 232 | 0.0 | 4.0 | 0.00 | 0.00 | 0.00 | 51 | 1027.6 |
| 20260507144542 | 43 | 215 | 3.0 | 6.0 | 0.00 | 0.00 | 0.00 | 52 | 1027.9 |
| 20260507143040 | 42 | 72 | 0.0 | 3.0 | 0.00 | 0.00 | 0.00 | 55 | 1028.1 |
| 20260507141535 | 40 | 72 | 1.0 | 3.0 | 0.00 | 0.00 | 0.00 | 62 | 1028.4 |
| 20260507140033 | 38 | 72 | 2.0 | 4.0 | 0.00 | 0.00 | 0.00 | 67 | 1028.8 |
| 20260507134527 | 35 | 72 | 3.0 | 8.0 | 0.00 | 0.02 | 0.00 | 70 | 1028.8 |
| 20260507133026 | 33 | 71 | 2.0 | 8.0 | 0.00 | 0.02 | 0.00 | 74 | 1028.8 |
| 20260507131527 | 31 | 71 | 2.0 | 5.0 | 0.00 | 0.02 | 0.00 | 79 | 1028.8 |
| 20260507130051 | 29 | 71 | 2.0 | 8.0 | 0.00 | 0.02 | 0.00 | 80 | 1028.9 |
| 20260507124524 | 28 | 70 | 5.0 | 9.0 | 0.00 | 0.02 | 0.00 | 81 | 1029.0 |
| 20260507123022 | 28 | 71 | 3.0 | 8.0 | 0.00 | 0.02 | 0.00 | 82 | 1028.9 |
| 20260507121520 | 28 | 71 | 3.0 | 7.0 | 0.00 | 0.02 | 0.00 | 83 | 1029.0 |
| 20260507120018 | 28 | 71 | 2.0 | 9.0 | 0.00 | 0.02 | 0.00 | 82 | 1029.0 |
| 20260507114520 | 28 | 70 | 3.0 | 5.0 | 0.00 | 0.02 | 0.00 | 81 | 1028.9 |
| 20260507113017 | 29 | 70 | 2.0 | 7.0 | 0.00 | 0.02 | 0.00 | 80 | 1028.9 |
| 20260507111519 | 29 | 70 | 4.0 | 10.0 | 0.00 | 0.02 | 0.00 | 80 | 1028.9 |
| 20260507110014 | 28 | 69 | 3.0 | 7.0 | 0.00 | 0.02 | 0.00 | 80 | 1028.8 |
| 20260507104515 | 28 | 69 | 3.0 | 7.0 | 0.00 | 0.02 | 0.00 | 80 | 1028.8 |
| 20260507103011 | 28 | 69 | 2.0 | 7.0 | 0.00 | 0.02 | 0.00 | 80 | 1028.9 |
| 20260507101510 | 29 | 68 | 2.0 | 7.0 | 0.00 | 0.02 | 0.00 | 78 | 1028.8 |
| 20260507100008 | 28 | 68 | 3.0 | 7.0 | 0.00 | 0.02 | 0.00 | 79 | 1028.8 |
| 20260507094506 | 28 | 68 | 3.0 | 7.0 | 0.00 | 0.02 | 0.00 | 80 | 1029.0 |
| 20260507093006 | 28 | 68 | 2.0 | 5.0 | 0.00 | 0.02 | 0.00 | 79 | 1028.9 |
| 20260507091502 | 28 | 68 | 2.0 | 4.0 | 0.00 | 0.02 | 0.00 | 79 | 1028.8 |
| 20260507090059 | 29 | 68 | 2.0 | 3.0 | 0.00 | 0.02 | 0.00 | 77 | 1028.8 |
| 20260507084600 | 29 | 68 | 1.0 | 3.0 | 0.00 | 0.02 | 0.00 | 76 | 1028.5 |
| 20260507083109 | 29 | 68 | 2.0 | 5.0 | 0.00 | 0.02 | 0.00 | 77 | 1028.4 |
| 20260507081559 | 29 | 68 | 2.0 | 7.0 | 0.00 | 0.02 | 0.00 | 77 | 1028.2 |
| 20260507080050 | 29 | 67 | 3.0 | 4.0 | 0.00 | 0.02 | 0.00 | 76 | 1028.0 |
| 20260507074548 | 30 | 67 | 2.0 | 4.0 | 0.00 | 0.03 | 0.00 | 75 | 1028.0 |
| 20260507073053 | 32 | 67 | 2.0 | 7.0 | 0.00 | 0.03 | 0.00 | 73 | 1027.8 |
| 20260507071540 | 32 | 68 | 2.0 | 8.0 | 0.00 | 0.03 | 0.00 | 71 | 1027.4 |
| 20260507070041 | 33 | 67 | 3.0 | 9.0 | 0.00 | 0.03 | 0.00 | 70 | 1027.6 |
| 20260507064539 | 34 | 68 | 4.0 | 9.0 | 0.00 | 0.03 | 0.00 | 70 | 1027.4 |
| 20260507063034 | 34 | 74 | 6.0 | 11.0 | 0.00 | 0.03 | 0.00 | 69 | 1027.2 |
| 20260507061529 | 35 | 69 | 6.0 | 12.0 | 0.00 | 0.03 | 0.00 | 69 | 1027.2 |
| 20260507060031 | 35 | 59 | 6.0 | 11.0 | 0.00 | 0.03 | 0.00 | 69 | 1027.1 |
| 20260507054529 | 36 | 55 | 7.0 | 12.0 | 0.00 | 0.03 | 0.03 | 68 | 1026.9 |
| 20260507053024 | 36 | 65 | 7.0 | 13.0 | 0.00 | 0.03 | 0.03 | 68 | 1026.9 |
| 20260507051523 | 37 | 68 | 6.0 | 11.0 | 0.00 | 0.03 | 0.03 | 67 | 1026.7 |
| 20260507050032 | 37 | 54 | 5.0 | 9.0 | 0.00 | 0.03 | 0.03 | 67 | 1026.7 |
| 20260507044530 | 36 | 240 | 4.0 | 7.0 | 0.00 | 0.07 | 0.03 | 69 | 1026.4 |
| 20260507043019 | 36 | 242 | 3.0 | 5.0 | 0.00 | 0.07 | 0.03 | 70 | 1026.2 |
| 20260507041528 | 36 | 242 | 2.0 | 5.0 | 0.00 | 0.07 | 0.03 | 70 | 1025.9 |
| 20260507040015 | 36 | 242 | 2.0 | 4.0 | 0.00 | 0.07 | 0.03 | 70 | 1025.7 |
| 20260507034517 | 37 | 242 | 1.0 | 3.0 | 0.00 | 0.09 | 0.03 | 69 | 1025.4 |
| 20260507033011 | 38 | 242 | 0.0 | 3.0 | 0.00 | 0.09 | 0.03 | 66 | 1025.1 |
| 20260507031507 | 39 | 242 | 1.0 | 3.0 | 0.00 | 0.09 | 0.03 | 62 | 1024.7 |
| 20260507030005 | 41 | 242 | 0.0 | 1.0 | 0.00 | 0.09 | 0.03 | 57 | 1024.2 |
| 20260507024503 | 43 | 242 | 0.0 | 2.0 | 0.00 | 0.15 | 0.03 | 54 | 1023.9 |
| 20260507023001 | 45 | 242 | 0.0 | 7.0 | 0.00 | 0.15 | 0.03 | 49 | 1023.6 |
| 20260507021559 | 46 | 247 | 0.0 | 11.0 | 0.00 | 0.15 | 0.03 | 47 | 1023.3 |
| 20260507021501 | 46 | 248 | 1.0 | 11.0 | 0.00 | 0.15 | 0.03 | 46 | 1023.2 |
| 20260507020110 | 47 | 244 | 4.0 | 9.0 | 0.00 | 0.15 | 0.03 | 45 | 1022.9 |
| 20260507014606 | 48 | 240 | 4.0 | 12.0 | 0.00 | 0.25 | 0.03 | 45 | 1022.7 |
| 20260507013056 | 49 | 245 | 5.0 | 13.0 | 0.00 | 0.25 | 0.03 | 42 | 1022.5 |
| 20260507011555 | 49 | 240 | 6.0 | 17.0 | 0.00 | 0.25 | 0.03 | 41 | 1022.6 |
| 20260507010052 | 50 | 312 | 6.0 | 12.0 | 0.00 | 0.25 | 0.03 | 41 | 1022.4 |
| 20260507004550 | 50 | 298 | 3.0 | 15.0 | 0.00 | 0.25 | 0.03 | 42 | 1021.9 |
| 20260507003048 | 48 | 248 | 1.0 | 5.0 | 0.00 | 0.25 | 0.03 | 57 | 1021.2 |
| 20260507001553 | 49 | 251 | 2.0 | 11.0 | 0.00 | 0.25 | 0.03 | 55 | 1021.2 |
| 20260507000046 | 51 | 237 | 5.0 | 14.0 | 0.00 | 0.25 | 0.03 | 41 | 1020.6 |
| 20260506234552 | 52 | 241 | 6.0 | 12.0 | 0.00 | 0.25 | 0.03 | 44 | 1020.8 |